Time;durP1;ratioP1;P1;durP2;ratioP2;P2;SDS_P1;SDS_P2;PMS_P1;PMS_P2;Temp;Humidity;BMP_temperature;BMP_pressure;BME280_temperature;BME280_humidity;BME280_pressure;Samples;Min_cycle;Max_cycle;Signal;HPM_P1;HPM_P2
2023/12/25 00:02:13;;;;;;;3.97;1.90;;;;;;;;;;5116318;28;20249;-81
2023/12/25 00:04:41;;;;;;;3.00;2.20;;;;;;;;;;5097105;28;20207;-81
2023/12/25 00:07:10;;;;;;;3.77;1.93;;;;;;;;;;5097371;28;20218;-80
2023/12/25 00:09:41;;;;;;;5.53;2.00;;;;;;;;;;5115489;28;20203;-81
2023/12/25 00:12:09;;;;;;;2.60;2.07;;;;;;;;;;5115645;28;20196;-80
2023/12/25 00:14:36;;;;;;;6.80;2.43;;;;;;;;;;5080554;28;20204;-80
2023/12/25 00:17:03;;;;;;;4.30;2.10;;;;;;;;;;5115069;28;20222;-81
2023/12/25 00:19:30;;;;;;;9.33;6.30;;;;;;;;;;5115360;28;20584;-80
2023/12/25 00:21:58;;;;;;;8.50;5.07;;;;;;;;;;5115232;28;20196;-81
2023/12/25 00:24:25;;;;;;;3.30;2.60;;;;;;;;;;5098155;28;20196;-80
2023/12/25 00:26:52;;;;;;;4.17;2.30;;;;;;;;;;5115373;28;20195;-81
2023/12/25 00:29:19;;;;;;;4.03;2.70;;;;;;;;;;5115126;28;20210;-81
2023/12/25 00:31:47;;;;;;;6.67;2.90;;;;;;;;;;5115656;28;20579;-80
2023/12/25 00:34:15;;;;;;;8.30;4.70;;;;;;;;;;5080522;28;20576;-81
2023/12/25 00:36:42;;;;;;;9.17;5.37;;;;;;;;;;5078689;28;20219;-81
2023/12/25 00:39:13;;;;;;;7.80;3.97;;;;;;;;;;5096772;28;20207;-81
2023/12/25 00:41:40;;;;;;;5.97;5.00;;;;;;;;;;5096620;28;20579;-81
2023/12/25 00:44:07;;;;;;;4.17;3.40;;;;;;;;;;5114593;28;20199;-81
2023/12/25 00:46:34;;;;;;;5.53;3.33;;;;;;;;;;5112965;28;20244;-81
2023/12/25 00:49:02;;;;;;;9.07;4.10;;;;;;;;;;5096576;28;20730;-81
2023/12/25 00:51:29;;;;;;;7.70;4.73;;;;;;;;;;5096308;28;20195;-80
2023/12/25 00:53:56;;;;;;;4.30;3.20;;;;;;;;;;5079388;28;20260;-82
2023/12/25 00:56:25;;;;;;;5.77;3.10;;;;;;;;;;5114687;28;20218;-80
2023/12/25 00:58:52;;;;;;;4.77;2.47;;;;;;;;;;5113696;28;20290;-82
2023/12/25 01:01:18;;;;;;;4.73;2.33;;;;;;;;;;5096320;28;20200;-81
2023/12/25 01:03:45;;;;;;;6.80;2.67;;;;;;;;;;5115035;28;20195;-82
2023/12/25 01:06:12;;;;;;;4.13;2.60;;;;;;;;;;5096256;28;20256;-82
2023/12/25 01:08:39;;;;;;;3.67;2.67;;;;;;;;;;5114854;28;20187;-82
2023/12/25 01:11:07;;;;;;;3.30;2.40;;;;;;;;;;5096397;28;20196;-82
2023/12/25 01:13:35;;;;;;;4.33;2.50;;;;;;;;;;5114333;28;20200;-82
2023/12/25 01:16:02;;;;;;;8.13;4.43;;;;;;;;;;5096151;28;20191;-82
2023/12/25 01:18:29;;;;;;;23.63;16.83;;;;;;;;;;5113949;28;20195;-82
2023/12/25 01:20:56;;;;;;;15.33;12.30;;;;;;;;;;5114285;28;20201;-81
2023/12/25 01:23:23;;;;;;;7.63;6.77;;;;;;;;;;5095796;28;20195;-81
2023/12/25 01:25:50;;;;;;;7.93;5.03;;;;;;;;;;5113910;28;20731;-80
2023/12/25 01:28:18;;;;;;;14.27;10.27;;;;;;;;;;5114082;28;20263;-81
2023/12/25 01:30:47;;;;;;;9.27;4.13;;;;;;;;;;5113702;28;20222;-81
2023/12/25 01:33:14;;;;;;;7.60;3.30;;;;;;;;;;5095617;28;20673;-80
2023/12/25 01:35:41;;;;;;;7.57;3.40;;;;;;;;;;5113814;28;20225;-80
2023/12/25 01:38:08;;;;;;;4.07;2.80;;;;;;;;;;5113543;28;20701;-80
2023/12/25 01:40:36;;;;;;;3.37;2.30;;;;;;;;;;5113837;28;20207;-81
2023/12/25 01:43:03;;;;;;;3.43;2.07;;;;;;;;;;5114092;28;20207;-80
2023/12/25 01:45:30;;;;;;;3.13;2.27;;;;;;;;;;5113923;28;20244;-80
2023/12/25 01:47:58;;;;;;;3.80;1.97;;;;;;;;;;5114483;28;20196;-80
2023/12/25 01:50:25;;;;;;;7.53;4.97;;;;;;;;;;5095751;28;20714;-80
2023/12/25 01:52:53;;;;;;;5.57;4.73;;;;;;;;;;5096687;28;20195;-80
2023/12/25 01:55:19;;;;;;;11.43;6.33;;;;;;;;;;5113756;28;20199;-80
2023/12/25 01:57:47;;;;;;;7.70;5.17;;;;;;;;;;5113265;28;20223;-80
2023/12/25 02:00:15;;;;;;;8.33;5.27;;;;;;;;;;5113270;28;20692;-81
2023/12/25 02:02:42;;;;;;;6.93;4.40;;;;;;;;;;5095043;28;20195;-81
2023/12/25 02:05:11;;;;;;;4.37;2.97;;;;;;;;;;5095428;28;20260;-81
2023/12/25 02:07:39;;;;;;;9.37;3.40;;;;;;;;;;5113016;28;20208;-81
2023/12/25 02:10:08;;;;;;;3.57;2.57;;;;;;;;;;5113301;28;20773;-81
2023/12/25 02:12:35;;;;;;;5.63;2.70;;;;;;;;;;5102761;28;20200;-81
2023/12/25 02:15:02;;;;;;;4.90;2.80;;;;;;;;;;5078295;28;20209;-81
2023/12/25 02:17:29;;;;;;;6.77;2.67;;;;;;;;;;5094775;28;20600;-81
2023/12/25 02:19:57;;;;;;;3.30;3.00;;;;;;;;;;5095512;28;20203;-81
2023/12/25 02:22:26;;;;;;;3.07;2.47;;;;;;;;;;5113189;28;20203;-81
2023/12/25 02:24:56;;;;;;;5.93;3.20;;;;;;;;;;5094787;28;20269;-82
2023/12/25 02:27:25;;;;;;;2.80;2.60;;;;;;;;;;5078085;28;20273;-81
2023/12/25 02:29:52;;;;;;;4.03;3.20;;;;;;;;;;5113261;28;20204;-82
2023/12/25 02:32:19;;;;;;;15.07;6.00;;;;;;;;;;5113259;28;20690;-81
2023/12/25 02:34:47;;;;;;;7.47;5.20;;;;;;;;;;5095287;28;20203;-81
2023/12/25 02:37:14;;;;;;;9.07;5.47;;;;;;;;;;5112761;28;20339;-81
2023/12/25 02:39:41;;;;;;;28.40;14.50;;;;;;;;;;5093613;28;20196;-81
2023/12/25 02:42:08;;;;;;;10.50;5.30;;;;;;;;;;5112713;28;20191;-81
2023/12/25 02:44:37;;;;;;;8.13;3.87;;;;;;;;;;5094492;28;20188;-80
2023/12/25 02:47:04;;;;;;;4.03;2.67;;;;;;;;;;5112595;28;20200;-81
2023/12/25 02:49:31;;;;;;;2.90;2.00;;;;;;;;;;5094387;28;20661;-81
2023/12/25 02:51:58;;;;;;;4.20;2.80;;;;;;;;;;5094728;28;20199;-81
2023/12/25 02:54:25;;;;;;;2.97;2.30;;;;;;;;;;5112658;28;20608;-81
2023/12/25 02:56:51;;;;;;;3.37;2.50;;;;;;;;;;5112343;28;20219;-81
2023/12/25 02:59:18;;;;;;;3.13;2.23;;;;;;;;;;5112683;28;20199;-81
2023/12/25 03:01:47;;;;;;;4.00;2.80;;;;;;;;;;5077919;28;20233;-82
2023/12/25 03:04:14;;;;;;;5.83;2.70;;;;;;;;;;5112357;28;20200;-82
2023/12/25 03:06:41;;;;;;;2.70;2.33;;;;;;;;;;5094549;28;20199;-81
2023/12/25 03:09:07;;;;;;;5.10;2.10;;;;;;;;;;5077407;28;20199;-81
2023/12/25 03:11:34;;;;;;;4.63;2.60;;;;;;;;;;5112336;28;20654;-80
2023/12/25 03:14:05;;;;;;;2.93;2.40;;;;;;;;;;5112912;28;20564;-81
2023/12/25 03:16:32;;;;;;;5.50;4.83;;;;;;;;;;5112409;28;20195;-81
2023/12/25 03:19:01;;;;;;;5.87;4.30;;;;;;;;;;5112309;28;20687;-81
2023/12/25 03:21:29;;;;;;;9.83;4.83;;;;;;;;;;5112618;28;20195;-80
2023/12/25 03:23:56;;;;;;;16.73;11.33;;;;;;;;;;5094372;28;20677;-80
2023/12/25 03:26:23;;;;;;;16.40;10.03;;;;;;;;;;5114830;27;20260;-80
2023/12/25 03:28:49;;;;;;;9.63;7.40;;;;;;;;;;5081764;28;20235;-80
2023/12/25 03:31:16;;;;;;;7.33;6.40;;;;;;;;;;5114926;28;20595;-80
2023/12/25 03:33:43;;;;;;;5.83;4.40;;;;;;;;;;5098704;28;20196;-80
2023/12/25 03:36:13;;;;;;;6.50;4.27;;;;;;;;;;5088106;28;20654;-81
2023/12/25 03:38:40;;;;;;;6.47;3.87;;;;;;;;;;5107135;28;20678;-80
2023/12/25 03:41:08;;;;;;;5.60;2.83;;;;;;;;;;5097842;28;20196;-81
2023/12/25 03:43:36;;;;;;;5.13;2.70;;;;;;;;;;5116439;28;20198;-81
2023/12/25 03:46:03;;;;;;;5.30;3.20;;;;;;;;;;5098259;28;20662;-82
2023/12/25 03:48:30;;;;;;;6.93;4.33;;;;;;;;;;5116055;28;20202;-82
2023/12/25 03:50:57;;;;;;;3.33;2.93;;;;;;;;;;5081075;28;20207;-82
2023/12/25 03:53:26;;;;;;;5.30;2.90;;;;;;;;;;5098257;28;20202;-82
2023/12/25 03:55:53;;;;;;;5.00;2.33;;;;;;;;;;5116398;28;20202;-82
2023/12/25 03:58:20;;;;;;;6.43;2.53;;;;;;;;;;5115500;28;20629;-82
2023/12/25 04:00:47;;;;;;;4.93;2.63;;;;;;;;;;5097695;28;20256;-82
2023/12/25 04:03:14;;;;;;;5.40;2.30;;;;;;;;;;5096232;28;20200;-81
2023/12/25 04:05:41;;;;;;;3.50;2.00;;;;;;;;;;5097825;28;20631;-81
2023/12/25 04:08:08;;;;;;;5.10;2.77;;;;;;;;;;5097674;28;20658;-81
2023/12/25 04:10:37;;;;;;;14.87;8.37;;;;;;;;;;5079124;28;20653;-81
2023/12/25 04:13:04;;;;;;;173.03;87.10;;;;;;;;;;5081503;28;20268;-81
2023/12/25 04:15:31;;;;;;;63.60;33.53;;;;;;;;;;5115640;28;20227;-81
2023/12/25 04:17:58;;;;;;;36.80;20.37;;;;;;;;;;5115519;28;20589;-81
2023/12/25 04:20:24;;;;;;;9.57;6.70;;;;;;;;;;5113981;28;20201;-81
2023/12/25 04:22:51;;;;;;;5.80;3.03;;;;;;;;;;5114029;28;20624;-81
2023/12/25 04:25:18;;;;;;;12.20;7.53;;;;;;;;;;5116046;28;20191;-80
2023/12/25 04:27:47;;;;;;;10.37;6.40;;;;;;;;;;5113850;28;20194;-81
2023/12/25 04:30:14;;;;;;;9.47;6.57;;;;;;;;;;5115292;28;20195;-80
2023/12/25 04:32:41;;;;;;;4.70;2.63;;;;;;;;;;5096335;28;20215;-81
2023/12/25 04:35:08;;;;;;;6.83;3.20;;;;;;;;;;5095676;28;20268;-80
2023/12/25 04:37:35;;;;;;;6.57;3.50;;;;;;;;;;5113154;28;20222;-80
2023/12/25 04:40:02;;;;;;;9.00;4.50;;;;;;;;;;5095787;28;20195;-80
2023/12/25 04:42:29;;;;;;;4.80;3.30;;;;;;;;;;5095814;28;20199;-81
2023/12/25 04:44:58;;;;;;;3.40;2.23;;;;;;;;;;5094439;28;20201;-81
2023/12/25 04:47:24;;;;;;;3.20;2.53;;;;;;;;;;5075344;28;20606;-81
2023/12/25 04:49:51;;;;;;;3.13;1.93;;;;;;;;;;5075356;28;20204;-82
2023/12/25 04:52:18;;;;;;;5.47;1.70;;;;;;;;;;5092314;28;20200;-82
2023/12/25 04:54:46;;;;;;;4.50;2.27;;;;;;;;;;5093075;28;20204;-82
2023/12/25 04:57:13;;;;;;;2.37;2.10;;;;;;;;;;5092819;28;20204;-82
2023/12/25 04:59:39;;;;;;;5.23;2.97;;;;;;;;;;5093072;28;20654;-81
2023/12/25 05:02:09;;;;;;;24.87;12.60;;;;;;;;;;5075632;28;20203;-81
2023/12/25 05:04:37;;;;;;;13.43;7.50;;;;;;;;;;5074933;28;20207;-81
2023/12/25 05:07:04;;;;;;;12.43;4.93;;;;;;;;;;5092928;28;20192;-82
2023/12/25 05:09:31;;;;;;;4.63;2.90;;;;;;;;;;5092598;28;20201;-81
2023/12/25 05:11:58;;;;;;;6.73;2.83;;;;;;;;;;5093179;28;20192;-81
2023/12/25 05:14:25;;;;;;;3.63;2.40;;;;;;;;;;5093130;28;20204;-82
2023/12/25 05:16:52;;;;;;;6.73;2.90;;;;;;;;;;5092714;28;20610;-81
2023/12/25 05:19:20;;;;;;;5.17;2.50;;;;;;;;;;5074603;28;20224;-82
2023/12/25 05:21:47;;;;;;;4.63;2.37;;;;;;;;;;5093053;28;20196;-81
2023/12/25 05:24:14;;;;;;;5.13;2.40;;;;;;;;;;5076125;28;20212;-82
2023/12/25 05:26:41;;;;;;;4.50;2.30;;;;;;;;;;5092701;28;20207;-82
2023/12/25 05:29:08;;;;;;;6.37;3.30;;;;;;;;;;5092192;28;20204;-82
2023/12/25 05:31:35;;;;;;;5.13;3.13;;;;;;;;;;5030942;28;1239637;-82
2023/12/25 05:34:02;;;;;;;4.63;2.83;;;;;;;;;;5075717;28;20200;-82
2023/12/25 05:36:31;;;;;;;7.83;3.27;;;;;;;;;;5093629;28;20223;-82
2023/12/25 05:38:58;;;;;;;4.73;2.77;;;;;;;;;;5074735;28;20246;-82
2023/12/25 05:41:24;;;;;;;8.83;2.50;;;;;;;;;;5093713;28;20197;-82
2023/12/25 05:43:52;;;;;;;6.57;3.50;;;;;;;;;;5093394;28;20237;-82
2023/12/25 05:46:18;;;;;;;6.37;3.80;;;;;;;;;;5075388;28;20203;-81
2023/12/25 05:48:45;;;;;;;7.00;4.00;;;;;;;;;;5077875;28;20573;-81
2023/12/25 05:51:12;;;;;;;7.70;3.40;;;;;;;;;;5114802;28;20195;-81
2023/12/25 05:57:02;;;;;;;6.27;2.53;;;;;;;;;;5113772;28;20209;-82
2023/12/25 05:59:29;;;;;;;5.27;2.70;;;;;;;;;;5113087;28;20347;-82
2023/12/25 06:01:56;;;;;;;6.93;3.00;;;;;;;;;;5094780;28;20204;-82
2023/12/25 06:04:23;;;;;;;7.87;3.63;;;;;;;;;;5095045;28;20191;-81
2023/12/25 06:06:53;;;;;;;3.67;2.50;;;;;;;;;;5113312;28;20199;-81
2023/12/25 06:09:20;;;;;;;5.27;2.43;;;;;;;;;;5078928;28;20262;-81
2023/12/25 06:11:48;;;;;;;5.60;3.03;;;;;;;;;;5094800;28;20214;-81
2023/12/25 06:14:16;;;;;;;7.60;3.30;;;;;;;;;;5095098;28;20202;-82
2023/12/25 06:16:43;;;;;;;9.77;2.90;;;;;;;;;;5113383;28;20203;-81
2023/12/25 06:19:12;;;;;;;11.73;5.07;;;;;;;;;;5112380;28;20241;-81
2023/12/25 06:21:39;;;;;;;8.70;5.40;;;;;;;;;;5113506;28;20195;-84
2023/12/25 06:24:06;;;;;;;8.90;3.57;;;;;;;;;;5112690;28;20203;-80
2023/12/25 06:26:34;;;;;;;7.00;2.77;;;;;;;;;;5112590;28;20658;-80
2023/12/25 06:29:01;;;;;;;4.80;2.30;;;;;;;;;;5076621;28;20246;-80
2023/12/25 06:31:29;;;;;;;6.73;3.23;;;;;;;;;;5085488;28;20211;-80
2023/12/25 06:33:56;;;;;;;3.33;2.20;;;;;;;;;;5094288;28;20199;-80
2023/12/25 06:36:23;;;;;;;4.70;3.03;;;;;;;;;;5090375;28;20203;-80
2023/12/25 06:38:50;;;;;;;11.70;3.43;;;;;;;;;;5095652;28;20219;-80
2023/12/25 06:41:17;;;;;;;5.07;3.57;;;;;;;;;;5094994;28;20199;-81
2023/12/25 06:43:44;;;;;;;10.40;6.73;;;;;;;;;;5078122;28;20252;-81
2023/12/25 06:46:12;;;;;;;7.13;5.20;;;;;;;;;;5112106;28;20210;-81
2023/12/25 06:48:40;;;;;;;7.70;4.80;;;;;;;;;;5091513;28;20290;-79
2023/12/25 06:51:08;;;;;;;11.53;4.37;;;;;;;;;;5092828;28;20202;-82
2023/12/25 06:53:35;;;;;;;8.40;3.67;;;;;;;;;;5093280;28;20198;-85
2023/12/25 06:56:03;;;;;;;4.73;3.30;;;;;;;;;;5092522;28;20196;-81
2023/12/25 06:58:30;;;;;;;7.27;3.93;;;;;;;;;;5076265;28;20211;-81
2023/12/25 07:00:57;;;;;;;6.73;3.83;;;;;;;;;;5111658;28;20202;-79
2023/12/25 07:03:23;;;;;;;7.53;2.80;;;;;;;;;;5094221;28;20249;-86
2023/12/25 07:05:52;;;;;;;4.53;2.63;;;;;;;;;;5112586;28;20199;-79
2023/12/25 07:08:19;;;;;;;5.97;2.67;;;;;;;;;;5112146;28;20200;-82
2023/12/25 07:10:46;;;;;;;4.20;2.53;;;;;;;;;;5094054;28;20256;-79
2023/12/25 07:13:14;;;;;;;4.97;3.40;;;;;;;;;;5077390;28;20195;-79
2023/12/25 07:15:41;;;;;;;5.87;4.53;;;;;;;;;;5112887;28;20203;-79
2023/12/25 07:18:08;;;;;;;7.40;4.00;;;;;;;;;;5093796;28;20257;-79
2023/12/25 07:20:35;;;;;;;5.70;5.10;;;;;;;;;;5112787;28;20213;-79
2023/12/25 07:23:03;;;;;;;6.93;4.57;;;;;;;;;;5094159;28;20261;-79
2023/12/25 07:25:30;;;;;;;4.87;3.07;;;;;;;;;;5111889;28;20200;-79
2023/12/25 07:27:57;;;;;;;8.33;4.43;;;;;;;;;;5111902;28;20600;-79
2023/12/25 07:30:24;;;;;;;5.97;2.47;;;;;;;;;;5111801;28;20580;-79
2023/12/25 07:32:51;;;;;;;5.00;3.43;;;;;;;;;;5093645;28;20196;-79
2023/12/25 07:35:18;;;;;;;4.83;2.90;;;;;;;;;;5093908;28;20200;-80
2023/12/25 07:37:45;;;;;;;2.60;2.40;;;;;;;;;;5110455;28;20206;-80
2023/12/25 07:40:15;;;;;;;3.63;2.37;;;;;;;;;;5093515;28;20702;-80
2023/12/25 07:42:41;;;;;;;3.77;2.00;;;;;;;;;;5094048;28;20662;-80
2023/12/25 07:45:13;;;;;;;2.50;2.30;;;;;;;;;;5093799;28;20203;-80
2023/12/25 07:47:40;;;;;;;5.77;3.07;;;;;;;;;;5094900;28;20300;-80
2023/12/25 07:50:08;;;;;;;3.17;2.10;;;;;;;;;;5077643;28;20235;-80
2023/12/25 07:52:35;;;;;;;5.27;3.03;;;;;;;;;;5111182;28;20204;-80
2023/12/25 07:55:03;;;;;;;3.47;2.30;;;;;;;;;;5077891;28;20218;-80
2023/12/25 07:57:31;;;;;;;5.80;2.70;;;;;;;;;;5111369;28;20286;-81
2023/12/25 07:59:58;;;;;;;3.50;2.63;;;;;;;;;;5093645;28;20705;-80
2023/12/25 08:02:25;;;;;;;2.80;1.97;;;;;;;;;;5112109;28;20199;-80
2023/12/25 08:04:52;;;;;;;6.40;2.57;;;;;;;;;;5093387;28;20674;-80
2023/12/25 08:07:19;;;;;;;9.07;3.40;;;;;;;;;;5111610;28;20199;-79
2023/12/25 08:09:47;;;;;;;6.13;2.33;;;;;;;;;;5093623;28;20199;-79
2023/12/25 08:12:14;;;;;;;4.73;2.40;;;;;;;;;;5079474;28;20662;-80
2023/12/25 08:14:42;;;;;;;3.07;2.03;;;;;;;;;;5115350;28;20195;-80
2023/12/25 08:17:11;;;;;;;2.47;1.90;;;;;;;;;;5115233;28;20214;-80
2023/12/25 08:19:38;;;;;;;2.77;1.93;;;;;;;;;;5097145;28;20219;-80
2023/12/25 08:22:05;;;;;;;3.27;2.20;;;;;;;;;;5097806;28;20195;-79
2023/12/25 08:24:32;;;;;;;3.37;2.53;;;;;;;;;;5115513;28;20225;-80
2023/12/25 08:26:59;;;;;;;4.03;2.53;;;;;;;;;;5113598;28;20206;-80
2023/12/25 08:29:25;;;;;;;5.33;2.83;;;;;;;;;;5115138;28;20196;-79
2023/12/25 08:31:55;;;;;;;5.73;3.03;;;;;;;;;;5115330;28;20220;-79
2023/12/25 08:34:23;;;;;;;2.77;2.30;;;;;;;;;;5116060;28;20249;-77
2023/12/25 08:36:50;;;;;;;4.37;3.97;;;;;;;;;;5115445;28;20260;-78
2023/12/25 08:39:17;;;;;;;6.30;3.37;;;;;;;;;;5115092;28;20585;-77
2023/12/25 08:41:43;;;;;;;16.63;6.10;;;;;;;;;;5114891;28;20206;-79
2023/12/25 08:44:13;;;;;;;7.57;6.23;;;;;;;;;;5115539;28;20635;-78
2023/12/25 08:46:41;;;;;;;8.23;5.53;;;;;;;;;;5113165;28;20191;-76
2023/12/25 08:49:11;;;;;;;4.27;2.83;;;;;;;;;;5114707;28;20208;-77
2023/12/25 08:51:38;;;;;;;5.47;3.23;;;;;;;;;;5114278;28;20197;-78
2023/12/25 08:54:07;;;;;;;9.97;4.37;;;;;;;;;;5095136;28;20565;-78
2023/12/25 08:56:34;;;;;;;10.37;7.00;;;;;;;;;;5086204;28;20642;-78
2023/12/25 08:59:01;;;;;;;3.43;2.63;;;;;;;;;;5106982;28;20223;-78
2023/12/25 09:01:30;;;;;;;9.50;5.70;;;;;;;;;;5113472;28;20201;-78
2023/12/25 09:03:57;;;;;;;7.20;3.67;;;;;;;;;;5113372;28;20206;-77
2023/12/25 09:06:25;;;;;;;5.47;3.30;;;;;;;;;;5102352;28;20666;-82
2023/12/25 09:08:52;;;;;;;2.83;2.10;;;;;;;;;;5105913;28;20218;-78
2023/12/25 09:11:19;;;;;;;6.70;3.67;;;;;;;;;;5094392;28;20281;-78
2023/12/25 09:13:46;;;;;;;3.83;2.53;;;;;;;;;;5092798;28;20207;-78
2023/12/25 09:16:13;;;;;;;4.23;3.20;;;;;;;;;;5109609;28;20199;-78
2023/12/25 09:18:39;;;;;;;4.97;2.70;;;;;;;;;;5102860;28;20191;-78
2023/12/25 09:21:07;;;;;;;5.90;3.27;;;;;;;;;;5112763;28;20666;-78
2023/12/25 09:23:35;;;;;;;9.40;4.67;;;;;;;;;;5100071;28;20199;-78
2023/12/25 09:26:03;;;;;;;2.43;1.80;;;;;;;;;;5105051;28;20222;-78
2023/12/25 09:28:30;;;;;;;3.50;1.97;;;;;;;;;;5095521;28;20204;-78
2023/12/25 09:30:57;;;;;;;2.60;1.50;;;;;;;;;;5103523;28;20227;-78
2023/12/25 09:33:24;;;;;;;4.70;2.10;;;;;;;;;;5099054;28;20286;-76
2023/12/25 09:35:51;;;;;;;4.47;2.20;;;;;;;;;;5093619;28;20207;-78
2023/12/25 09:38:18;;;;;;;2.57;2.30;;;;;;;;;;5109838;28;20195;-78
2023/12/25 09:40:46;;;;;;;3.30;1.90;;;;;;;;;;5113242;28;20231;-83
2023/12/25 09:43:13;;;;;;;7.20;2.27;;;;;;;;;;5112520;28;20606;-77
2023/12/25 09:45:40;;;;;;;4.53;2.80;;;;;;;;;;5113494;28;20264;-80
2023/12/25 09:48:07;;;;;;;6.77;3.20;;;;;;;;;;5111360;28;20653;-79
2023/12/25 09:50:35;;;;;;;4.80;3.53;;;;;;;;;;5114046;28;20217;-78
2023/12/25 09:53:02;;;;;;;5.40;2.27;;;;;;;;;;5112112;28;20241;-78
2023/12/25 09:55:29;;;;;;;3.30;3.00;;;;;;;;;;5111977;28;20192;-78
2023/12/25 09:57:58;;;;;;;6.27;3.40;;;;;;;;;;5099662;28;20192;-77
2023/12/25 10:00:25;;;;;;;20.53;18.47;;;;;;;;;;5097792;28;20777;-78
2023/12/25 10:02:52;;;;;;;3.53;3.17;;;;;;;;;;5106026;28;20229;-78
2023/12/25 10:05:19;;;;;;;9.00;5.13;;;;;;;;;;5091563;28;20275;-78
2023/12/25 10:07:46;;;;;;;7.57;3.70;;;;;;;;;;5107301;28;20200;-77
2023/12/25 10:10:13;;;;;;;6.57;3.90;;;;;;;;;;5111512;28;20705;-79
2023/12/25 10:12:43;;;;;;;18.97;11.80;;;;;;;;;;5105605;28;20197;-78
2023/12/25 10:15:12;;;;;;;8.10;5.27;;;;;;;;;;5101589;28;20253;-77
2023/12/25 10:17:39;;;;;;;13.37;8.67;;;;;;;;;;5105012;28;20206;-78
2023/12/25 10:20:08;;;;;;;6.77;4.93;;;;;;;;;;5100759;28;20220;-78
2023/12/25 10:22:38;;;;;;;13.17;8.03;;;;;;;;;;5112012;28;20237;-77
2023/12/25 10:25:09;;;;;;;8.63;5.77;;;;;;;;;;5112781;28;20202;-80
2023/12/25 10:27:37;;;;;;;7.87;6.10;;;;;;;;;;5094964;28;20199;-79
2023/12/25 10:30:05;;;;;;;6.33;4.67;;;;;;;;;;5112795;28;20670;-81
2023/12/25 10:32:34;;;;;;;5.20;3.07;;;;;;;;;;5113974;28;20681;-84
2023/12/25 10:35:13;;;;;;;10.17;6.90;;;;;;;;;;5112264;28;20657;-76
2023/12/25 10:37:41;;;;;;;5.17;3.67;;;;;;;;;;5112499;28;20199;-79
2023/12/25 10:40:23;;;;;;;9.07;5.77;;;;;;;;;;5094530;28;20230;-81
2023/12/25 10:42:51;;;;;;;5.67;4.13;;;;;;;;;;5110355;28;20741;-80
2023/12/25 10:45:21;;;;;;;2.57;2.33;;;;;;;;;;5112923;28;20199;-79
2023/12/25 10:47:52;;;;;;;9.50;5.03;;;;;;;;;;5112880;28;20191;-79
2023/12/25 10:50:21;;;;;;;20.87;15.37;;;;;;;;;;5112683;28;20617;-77
2023/12/25 10:52:49;;;;;;;10.97;8.13;;;;;;;;;;5094607;28;20234;-76
2023/12/25 10:55:22;;;;;;;3.50;2.57;;;;;;;;;;5112659;28;20256;-76
2023/12/25 10:57:49;;;;;;;4.97;3.17;;;;;;;;;;5094074;28;20701;-77
2023/12/25 11:00:18;;;;;;;5.60;3.87;;;;;;;;;;5093765;28;20222;-76
2023/12/25 11:02:46;;;;;;;5.73;3.93;;;;;;;;;;5093765;28;20199;-77
2023/12/25 11:05:14;;;;;;;12.13;8.57;;;;;;;;;;5112575;28;20577;-77
2023/12/25 11:07:43;;;;;;;18.47;13.53;;;;;;;;;;5094111;28;20206;-76
2023/12/25 11:10:16;;;;;;;4.63;3.40;;;;;;;;;;5093195;28;20283;-77
2023/12/25 11:12:44;;;;;;;6.30;2.97;;;;;;;;;;5106867;28;20256;-77
2023/12/25 11:15:14;;;;;;;4.00;3.20;;;;;;;;;;5093940;28;20202;-76
2023/12/25 11:17:41;;;;;;;4.37;3.30;;;;;;;;;;5112881;28;20227;-76
2023/12/25 11:20:12;;;;;;;6.10;4.00;;;;;;;;;;5112045;28;20226;-77
2023/12/25 11:22:44;;;;;;;11.90;9.50;;;;;;;;;;5112224;28;20578;-76
2023/12/25 11:25:15;;;;;;;3.60;2.73;;;;;;;;;;5102613;28;20208;-76
2023/12/25 11:27:42;;;;;;;15.53;11.73;;;;;;;;;;5091723;28;20200;-76
2023/12/25 11:30:11;;;;;;;12.53;5.40;;;;;;;;;;5091535;28;20742;-76
2023/12/25 11:32:40;;;;;;;2.57;2.33;;;;;;;;;;5091712;28;20216;-76
2023/12/25 11:35:08;;;;;;;21.00;11.57;;;;;;;;;;5091448;28;20666;-77
2023/12/25 11:37:36;;;;;;;238.73;127.87;;;;;;;;;;5091568;28;20196;-77
2023/12/25 11:40:07;;;;;;;261.00;137.50;;;;;;;;;;5073528;28;20222;-76
2023/12/25 11:42:35;;;;;;;16.60;11.63;;;;;;;;;;5091891;28;20204;-76
2023/12/25 11:45:04;;;;;;;94.60;57.40;;;;;;;;;;5091464;28;20200;-76
2023/12/25 11:47:42;;;;;;;26.97;18.03;;;;;;;;;;5094724;28;20650;-77
2023/12/25 11:50:12;;;;;;;5.87;4.33;;;;;;;;;;5095375;28;20191;-77
2023/12/25 11:52:46;;;;;;;11.07;6.20;;;;;;;;;;5095205;28;20221;-77
2023/12/25 11:55:16;;;;;;;6.50;5.00;;;;;;;;;;5095475;28;20624;-76
2023/12/25 11:57:43;;;;;;;7.77;6.23;;;;;;;;;;5095490;28;20275;-76
2023/12/25 12:00:16;;;;;;;4.57;3.23;;;;;;;;;;5095114;28;20258;-76
2023/12/25 12:02:43;;;;;;;7.00;6.37;;;;;;;;;;5095188;28;20245;-77
2023/12/25 12:05:11;;;;;;;6.90;4.40;;;;;;;;;;5095306;28;20200;-77
2023/12/25 12:07:38;;;;;;;4.83;2.80;;;;;;;;;;5095528;28;20257;-76
2023/12/25 12:10:06;;;;;;;15.53;13.67;;;;;;;;;;5094908;28;20674;-77
2023/12/25 12:12:34;;;;;;;6.17;5.07;;;;;;;;;;5101102;28;20199;-77
2023/12/25 12:15:05;;;;;;;5.03;3.43;;;;;;;;;;5115827;28;20203;-76
2023/12/25 12:17:34;;;;;;;4.07;3.67;;;;;;;;;;5112663;28;20199;-76
2023/12/25 12:20:04;;;;;;;6.67;5.37;;;;;;;;;;5114919;28;20215;-76
2023/12/25 12:22:31;;;;;;;5.80;3.73;;;;;;;;;;5115371;28;20199;-77
2023/12/25 12:25:12;;;;;;;15.67;14.23;;;;;;;;;;5092207;28;20670;-77
2023/12/25 12:27:41;;;;;;;8.87;7.97;;;;;;;;;;5094654;28;20196;-76
2023/12/25 12:30:10;;;;;;;6.67;2.90;;;;;;;;;;5094983;28;20534;-76
2023/12/25 12:32:37;;;;;;;4.37;3.23;;;;;;;;;;5095021;28;20266;-76
2023/12/25 12:35:05;;;;;;;8.20;6.47;;;;;;;;;;5076740;28;20196;-76
2023/12/25 12:37:32;;;;;;;3.07;2.63;;;;;;;;;;5094495;28;20207;-76
2023/12/25 12:40:02;;;;;;;3.33;2.13;;;;;;;;;;5094411;28;20252;-76
2023/12/25 12:42:29;;;;;;;2.90;2.00;;;;;;;;;;5095452;28;20253;-76
2023/12/25 12:44:59;;;;;;;4.90;2.17;;;;;;;;;;5094708;28;20206;-76
2023/12/25 12:47:25;;;;;;;4.70;2.07;;;;;;;;;;5076587;28;20196;-76
2023/12/25 12:49:53;;;;;;;1.70;1.60;;;;;;;;;;5094781;28;20200;-76
2023/12/25 12:52:20;;;;;;;3.10;2.20;;;;;;;;;;5094141;28;20603;-77
2023/12/25 12:54:47;;;;;;;5.63;2.70;;;;;;;;;;5094849;28;20219;-78
2023/12/25 12:57:14;;;;;;;4.70;2.27;;;;;;;;;;5075946;28;20204;-76
2023/12/25 12:59:41;;;;;;;5.00;2.93;;;;;;;;;;5094045;28;20697;-77
2023/12/25 13:02:09;;;;;;;5.93;2.47;;;;;;;;;;5094106;28;20295;-77
2023/12/25 13:04:36;;;;;;;3.53;3.23;;;;;;;;;;5094084;28;20565;-77
2023/12/25 13:07:06;;;;;;;3.23;2.63;;;;;;;;;;5076647;28;20288;-77
2023/12/25 13:09:33;;;;;;;3.03;2.00;;;;;;;;;;5094272;28;20196;-77
2023/12/25 13:12:01;;;;;;;5.27;2.17;;;;;;;;;;5093715;28;20196;-77
2023/12/25 13:14:28;;;;;;;3.97;2.50;;;;;;;;;;5075786;28;20283;-77
2023/12/25 13:16:55;;;;;;;3.53;1.73;;;;;;;;;;5093755;28;20283;-77
2023/12/25 13:19:24;;;;;;;1.70;1.40;;;;;;;;;;5063168;28;20202;-77
2023/12/25 13:21:51;;;;;;;2.33;1.87;;;;;;;;;;5112440;28;20219;-77
2023/12/25 13:24:17;;;;;;;1.37;1.27;;;;;;;;;;5114132;28;20202;-77
2023/12/25 13:26:44;;;;;;;2.67;2.37;;;;;;;;;;5114390;28;20207;-77
2023/12/25 13:29:11;;;;;;;3.17;2.10;;;;;;;;;;5114204;28;20206;-77
2023/12/25 13:31:38;;;;;;;2.33;1.70;;;;;;;;;;5114149;28;20318;-77
2023/12/25 13:34:06;;;;;;;4.10;1.70;;;;;;;;;;5114220;28;20199;-77
2023/12/25 13:36:34;;;;;;;3.40;2.10;;;;;;;;;;5090696;28;20246;-77
2023/12/25 13:39:04;;;;;;;2.57;2.10;;;;;;;;;;5094066;28;20195;-76
2023/12/25 13:41:31;;;;;;;2.90;2.13;;;;;;;;;;5113271;28;20233;-76
2023/12/25 13:43:58;;;;;;;4.63;2.63;;;;;;;;;;5113679;28;20669;-76
2023/12/25 13:46:24;;;;;;;4.30;3.40;;;;;;;;;;5113773;28;20206;-77
2023/12/25 13:48:52;;;;;;;5.63;3.27;;;;;;;;;;5113463;28;20199;-77
2023/12/25 13:51:18;;;;;;;2.40;1.90;;;;;;;;;;5113607;28;20689;-77
2023/12/25 13:53:47;;;;;;;3.87;2.40;;;;;;;;;;5113590;28;20196;-77
2023/12/25 13:56:13;;;;;;;4.53;2.17;;;;;;;;;;5112144;28;20585;-77
2023/12/25 13:58:41;;;;;;;7.17;4.23;;;;;;;;;;5112525;28;20200;-78
2023/12/25 14:01:07;;;;;;;7.17;3.73;;;;;;;;;;5114267;28;20597;-77
2023/12/25 14:03:34;;;;;;;5.13;2.20;;;;;;;;;;5107243;28;20202;-78
2023/12/25 14:06:02;;;;;;;9.30;6.00;;;;;;;;;;5112262;28;20203;-77
2023/12/25 14:08:29;;;;;;;11.90;8.63;;;;;;;;;;5108776;28;20199;-77
2023/12/25 14:10:57;;;;;;;21.47;14.00;;;;;;;;;;5112210;28;20207;-77
2023/12/25 14:13:23;;;;;;;7.60;5.20;;;;;;;;;;5112352;28;20195;-77
2023/12/25 14:15:51;;;;;;;76.40;42.03;;;;;;;;;;5109889;28;20196;-77
2023/12/25 14:18:18;;;;;;;23.70;16.10;;;;;;;;;;5109560;28;20200;-77
2023/12/25 14:20:45;;;;;;;6.80;4.97;;;;;;;;;;5112689;28;20223;-77
2023/12/25 14:23:11;;;;;;;5.53;4.63;;;;;;;;;;5106510;28;20206;-77
2023/12/25 14:25:38;;;;;;;7.60;6.10;;;;;;;;;;5106252;28;20210;-78
2023/12/25 14:28:08;;;;;;;12.73;11.43;;;;;;;;;;5112279;28;20573;-77
2023/12/25 14:30:35;;;;;;;13.13;11.83;;;;;;;;;;5112718;28;20264;-77
2023/12/25 14:33:02;;;;;;;6.33;5.73;;;;;;;;;;5111307;28;20204;-78
2023/12/25 14:35:29;;;;;;;5.03;4.47;;;;;;;;;;5112607;28;20196;-77
2023/12/25 14:37:56;;;;;;;3.03;2.70;;;;;;;;;;5111470;28;20215;-77
2023/12/25 14:40:23;;;;;;;2.97;2.47;;;;;;;;;;5111396;28;20203;-78
2023/12/25 14:42:50;;;;;;;2.47;2.00;;;;;;;;;;5112470;28;20674;-77
2023/12/25 14:45:18;;;;;;;2.50;2.30;;;;;;;;;;5103806;28;20204;-78
2023/12/25 14:47:45;;;;;;;2.33;1.87;;;;;;;;;;5104637;28;20206;-77